KAGC/AGC METAR and TAF weather

Enter ICAO airport designator
Station Type Date Time Source
KAGC METAR 2020/10/20 16:53 UTC NOAA

KAGC 201653Z 24005KT 9SM OVC019 16/14 A3021 RMK AO2 SLP232 T01610144


Station Type Date Time Source
KAGC Decoded METAR 2020/10/20 16:53 UTC NOAA

PITTSBURGH ALLEGHENY CTY., PA, United States (KAGC) 40-21N 079-55W 389M
Oct 20, 2020 - 12:53 PM EDT / 2020.10.20 1653 UTC
Wind: from the WSW (240 degrees) at 6 MPH (5 KT):0
Visibility: 9 mile(s):0
Sky conditions: overcast
Temperature: 61.0 F (16.1 C)
Dew Point: 57.9 F (14.4 C)
Relative Humidity: 89%
Pressure (altimeter): 30.21 in. Hg (1023 hPa)
ob: KAGC 201653Z 24005KT 9SM OVC019 16/14 A3021 RMK AO2 SLP232 T01610144
cycle: 17

Station Type Date Time Source
KAGC TAF 2020/10/20 12:24 UTC NOAA

TAF KAGC 201121Z 2012/2112 20005KT P6SM -RA BKN035
FM201300 VRB04KT P6SM -RA OVC015
TEMPO 2013/2015 OVC035
FM201600 18006KT 5SM -RA BR OVC006
FM210100 VRB04KT P6SM OVC025
FM210900 18006KT P6SM SCT025

Example: see airport list